Time;durP1;ratioP1;P1;durP2;ratioP2;P2;SDS_P1;SDS_P2;PMS_P1;PMS_P2;Temp;Humidity;BMP_temperature;BMP_pressure;BME280_temperature;BME280_humidity;BME280_pressure;Samples;Min_cycle;Max_cycle;Signal;HPM_P1;HPM_P2
2022/01/24 00:01:26;;;;;;;18.35;11.60;;;6.10;99.90;;;;;;5066303;28;20051;-60
2022/01/24 00:03:59;;;;;;;17.20;11.75;;;6.10;99.90;;;;;;5100588;28;20048;-60
2022/01/24 00:06:26;;;;;;;17.33;12.30;;;6.00;99.90;;;;;;5100654;28;20048;-60
2022/01/24 00:08:52;;;;;;;17.27;11.30;;;6.10;99.90;;;;;;5082650;28;20096;-60
2022/01/24 00:11:22;;;;;;;18.60;12.02;;;6.10;99.90;;;;;;5082314;28;20055;-60
2022/01/24 00:16:35;;;;;;;17.25;11.98;;;6.00;99.90;;;;;;5100217;28;20087;-60
2022/01/24 00:26:57;;;;;;;16.85;10.55;;;6.00;99.90;;;;;;5082643;28;20051;-60
2022/01/24 00:29:25;;;;;;;17.00;11.57;;;6.00;99.90;;;;;;5081701;28;20050;-60
2022/01/24 00:31:52;;;;;;;14.93;10.15;;;6.10;99.90;;;;;;5100529;28;20044;-61
2022/01/24 00:34:18;;;;;;;14.57;9.65;;;5.90;99.90;;;;;;5100326;28;20048;-61
2022/01/24 00:36:47;;;;;;;15.57;9.73;;;6.00;99.90;;;;;;5100336;28;20585;-60
2022/01/24 00:39:13;;;;;;;15.55;9.60;;;6.00;99.90;;;;;;5100442;28;20055;-60
2022/01/24 00:47:08;;;;;;;13.18;8.10;;;6.00;99.90;;;;;;5079700;28;20076;-61
2022/01/24 00:54:53;;;;;;;14.18;9.45;;;6.00;99.90;;;;;;5079330;28;20076;-60
2022/01/24 00:57:20;;;;;;;12.80;8.60;;;6.00;99.90;;;;;;5061815;28;20047;-60
2022/01/24 00:59:47;;;;;;;14.07;9.43;;;5.90;99.90;;;;;;5079420;28;20074;-60
2022/01/24 01:02:14;;;;;;;12.40;8.63;;;5.90;99.90;;;;;;5061519;28;20076;-60
2022/01/24 01:04:57;;;;;;;13.27;8.68;;;5.90;99.90;;;;;;5061438;28;20048;-60
2022/01/24 01:18:17;;;;;;;11.68;7.50;;;5.90;99.90;;;;;;5059710;28;20121;-60
2022/01/24 01:23:20;;;;;;;15.63;7.50;;;5.80;99.90;;;;;;5059207;28;20127;-59
2022/01/24 01:25:47;;;;;;;11.55;6.70;;;5.90;99.90;;;;;;5040655;28;20087;-61
2022/01/24 01:28:13;;;;;;;11.75;6.93;;;5.90;99.90;;;;;;5051815;28;20056;-60
2022/01/24 01:30:45;;;;;;;10.18;6.43;;;5.80;99.90;;;;;;5061337;28;20044;-60
2022/01/24 01:33:42;;;;;;;10.25;6.30;;;5.90;99.90;;;;;;5060912;28;20041;-60
2022/01/24 01:36:19;;;;;;;11.43;6.30;;;5.90;99.90;;;;;;5078926;28;20597;-60
2022/01/24 01:52:53;;;;;;;10.60;5.40;;;5.70;99.90;;;;;;5099607;28;20048;-60
2022/01/24 01:55:39;;;;;;;;;;;5.70;99.90;;;;;;5081052;28;20056;-59
2022/01/24 01:58:10;;;;;;;10.40;5.68;;;5.70;99.90;;;;;;5083790;28;19923;-60
2022/01/24 02:00:37;;;;;;;11.25;5.47;;;5.70;99.90;;;;;;5099334;28;20111;-59
2022/01/24 02:03:03;;;;;;;10.93;5.65;;;5.70;99.90;;;;;;5080415;28;20606;-61
2022/01/24 02:05:29;;;;;;;10.55;5.75;;;5.70;99.90;;;;;;5099588;28;20100;-60
2022/01/24 02:07:55;;;;;;;10.10;6.07;;;5.70;99.90;;;;;;5098594;28;20032;-60
2022/01/24 02:10:23;;;;;;;9.02;5.55;;;5.70;99.90;;;;;;5099045;28;20040;-60
2022/01/24 02:12:51;;;;;;;10.45;5.60;;;5.60;99.90;;;;;;5098581;28;20054;-60
2022/01/24 02:20:43;;;;;;;9.63;5.20;;;5.60;99.90;;;;;;5098277;28;20467;-59
2022/01/24 02:23:20;;;;;;;7.93;4.95;;;5.60;99.90;;;;;;5080829;28;20108;-60
2022/01/24 02:25:46;;;;;;;9.13;4.93;;;5.70;99.90;;;;;;5098691;28;20047;-60
2022/01/24 02:28:15;;;;;;;13.07;5.47;;;5.60;99.90;;;;;;5063474;28;20055;-60
2022/01/24 02:33:14;;;;;;;9.27;5.30;;;5.60;99.90;;;;;;5098122;28;20469;-60
2022/01/24 02:35:39;;;;;;;8.13;4.90;;;5.60;99.90;;;;;;5099007;28;20066;-60
2022/01/24 02:38:19;;;;;;;8.23;5.03;;;5.60;99.90;;;;;;5082333;28;20040;-60
2022/01/24 02:45:59;;;;;;;9.40;5.28;;;5.60;99.90;;;;;;5090139;28;20048;-60
2022/01/24 02:48:59;;;;;;;9.35;5.68;;;5.60;99.90;;;;;;5066749;28;20058;-60
2022/01/24 02:51:42;;;;;;;8.55;5.40;;;5.60;99.90;;;;;;5063830;28;20040;-60
2022/01/24 02:54:20;;;;;;;10.27;5.88;;;5.60;99.90;;;;;;5082144;28;20047;-60
2022/01/24 02:56:45;;;;;;;10.02;6.15;;;5.40;99.90;;;;;;5082611;28;20043;-60
2022/01/24 02:59:11;;;;;;;9.25;5.25;;;5.60;99.90;;;;;;5030263;28;20036;-60
2022/01/24 03:01:40;;;;;;;13.13;5.97;;;5.60;99.90;;;;;;5082114;28;20595;-60
2022/01/24 03:04:06;;;;;;;9.20;5.68;;;5.60;99.90;;;;;;5063375;28;20045;-60
2022/01/24 03:06:32;;;;;;;9.73;6.10;;;5.50;99.90;;;;;;5063693;28;20045;-60
2022/01/24 03:08:57;;;;;;;9.45;5.38;;;5.50;99.90;;;;;;5081733;28;20079;-59
2022/01/24 03:11:38;;;;;;;9.32;5.20;;;5.50;99.90;;;;;;5066118;28;20044;-59
2022/01/24 03:14:03;;;;;;;9.93;5.68;;;5.50;99.90;;;;;;5102442;28;20074;-59
2022/01/24 03:16:29;;;;;;;9.85;5.72;;;5.40;99.90;;;;;;5101599;28;20048;-59
2022/01/24 03:18:55;;;;;;;10.73;6.00;;;5.50;99.90;;;;;;5083487;28;20627;-59
2022/01/24 03:21:20;;;;;;;10.88;5.35;;;5.50;99.90;;;;;;5083258;28;20042;-60
2022/01/24 03:23:46;;;;;;;10.75;5.95;;;5.40;99.90;;;;;;5101603;28;20047;-59
2022/01/24 03:26:12;;;;;;;11.43;5.70;;;5.40;99.90;;;;;;5101870;28;20040;-59
2022/01/24 03:28:37;;;;;;;8.57;5.45;;;5.50;99.90;;;;;;5048635;28;20053;-59
2022/01/24 03:31:03;;;;;;;8.85;5.38;;;5.40;99.90;;;;;;5061949;28;20067;-59
2022/01/24 03:33:29;;;;;;;10.00;6.00;;;5.50;99.90;;;;;;5042779;28;20590;-60
2022/01/24 03:35:54;;;;;;;10.60;6.32;;;5.50;99.90;;;;;;5043472;28;20048;-60
2022/01/24 03:38:20;;;;;;;10.02;5.65;;;5.50;99.90;;;;;;5042881;28;20141;-60
2022/01/24 03:40:46;;;;;;;10.82;6.13;;;5.50;99.90;;;;;;5060725;28;20067;-60
2022/01/24 03:43:12;;;;;;;10.63;6.00;;;5.50;99.90;;;;;;5042911;28;20063;-60
2022/01/24 03:45:44;;;;;;;9.10;5.93;;;5.50;99.90;;;;;;5060595;28;20096;-60
2022/01/24 03:48:26;;;;;;;10.35;5.53;;;5.50;99.90;;;;;;5061388;28;20072;-60
2022/01/24 03:50:52;;;;;;;11.27;6.30;;;5.50;99.90;;;;;;5044786;28;20041;-60
2022/01/24 03:53:18;;;;;;;11.55;6.30;;;5.50;99.90;;;;;;5061096;28;20040;-60
2022/01/24 03:55:44;;;;;;;10.55;6.70;;;5.50;99.90;;;;;;5060622;28;20091;-60
2022/01/24 03:58:10;;;;;;;10.20;6.10;;;5.50;99.90;;;;;;5060616;28;20104;-60
2022/01/24 04:00:36;;;;;;;9.68;6.43;;;5.40;99.90;;;;;;5059840;28;20056;-60
2022/01/24 04:03:01;;;;;;;10.52;6.28;;;5.50;99.90;;;;;;5060441;28;20051;-59
2022/01/24 04:05:27;;;;;;;9.85;6.13;;;5.60;99.90;;;;;;5061136;28;20045;-59
2022/01/24 04:07:53;;;;;;;10.13;6.20;;;5.50;99.90;;;;;;5060288;28;20099;-59
2022/01/24 04:10:21;;;;;;;10.25;6.15;;;5.50;99.90;;;;;;5060560;28;20033;-59
2022/01/24 04:12:49;;;;;;;11.77;6.05;;;5.50;99.90;;;;;;5062050;28;20051;-59
2022/01/24 04:15:44;;;;;;;11.98;6.78;;;5.50;99.90;;;;;;5080556;28;20037;-59
2022/01/24 04:18:32;;;;;;;11.18;6.75;;;5.50;99.90;;;;;;5080705;28;20041;-59
2022/01/24 04:23:46;;;;;;;11.48;6.63;;;5.40;99.90;;;;;;5080280;28;20048;-60
2022/01/24 04:26:12;;;;;;;11.00;6.57;;;5.50;99.90;;;;;;5080644;28;20059;-60
2022/01/24 04:28:38;;;;;;;11.38;6.82;;;5.50;99.90;;;;;;5061875;28;20104;-60
2022/01/24 04:31:03;;;;;;;12.77;7.72;;;5.40;99.90;;;;;;5062761;28;20040;-60
2022/01/24 04:33:29;;;;;;;11.27;7.78;;;5.40;99.90;;;;;;5045254;28;20759;-60
2022/01/24 04:35:55;;;;;;;11.68;7.03;;;5.50;99.90;;;;;;5080089;28;20047;-60
2022/01/24 04:38:20;;;;;;;11.45;7.22;;;5.40;99.90;;;;;;5079727;28;20067;-60
2022/01/24 04:40:46;;;;;;;13.73;7.40;;;5.40;99.90;;;;;;5068410;28;20084;-59
2022/01/24 04:51:33;;;;;;;14.35;7.45;;;5.40;99.90;;;;;;5079315;28;20052;-59
2022/01/24 04:56:31;;;;;;;12.02;7.75;;;5.40;99.90;;;;;;5080193;28;20041;-60
2022/01/24 04:58:57;;;;;;;12.10;7.50;;;5.40;99.90;;;;;;5078159;28;20036;-60
2022/01/24 05:01:23;;;;;;;13.82;8.52;;;5.40;99.90;;;;;;5079342;28;20047;-60
2022/01/24 05:03:48;;;;;;;15.25;8.20;;;5.40;99.90;;;;;;5079434;28;20098;-60
2022/01/24 05:06:14;;;;;;;13.85;8.80;;;5.30;99.90;;;;;;5078227;28;20033;-60
2022/01/24 05:08:40;;;;;;;13.35;7.90;;;5.30;99.90;;;;;;5094920;28;20064;-59
2022/01/24 05:11:10;;;;;;;13.30;8.68;;;5.30;99.90;;;;;;5062020;28;20048;-59
2022/01/24 05:24:36;;;;;;;14.35;9.07;;;5.10;99.90;;;;;;5098238;28;20476;-59
2022/01/24 05:27:02;;;;;;;14.90;8.80;;;5.40;99.90;;;;;;5098692;28;20043;-59
2022/01/24 05:29:28;;;;;;;14.02;8.85;;;5.40;99.90;;;;;;5078939;28;20048;-59
2022/01/24 05:31:55;;;;;;;16.30;9.43;;;5.30;99.90;;;;;;5077526;28;20084;-60
2022/01/24 05:34:21;;;;;;;14.07;8.32;;;5.30;99.90;;;;;;5078943;28;20055;-59
2022/01/24 05:36:47;;;;;;;13.88;8.98;;;5.30;99.90;;;;;;5078965;28;20029;-59
2022/01/24 05:39:12;;;;;;;16.20;9.25;;;5.30;99.90;;;;;;5061243;28;20048;-60
2022/01/24 05:41:39;;;;;;;15.88;9.85;;;5.30;99.90;;;;;;5077139;28;20108;-59
2022/01/24 05:44:08;;;;;;;16.33;8.73;;;5.30;99.90;;;;;;5078116;28;20040;-59
2022/01/24 05:46:34;;;;;;;17.42;9.32;;;5.30;99.90;;;;;;5078646;28;20037;-59
2022/01/24 05:49:01;;;;;;;13.57;8.50;;;5.30;99.90;;;;;;5078846;28;20104;-59
2022/01/24 05:51:28;;;;;;;15.68;9.73;;;5.30;99.90;;;;;;5078537;28;20080;-60
2022/01/24 05:53:54;;;;;;;15.95;9.82;;;5.30;99.90;;;;;;5078984;28;20044;-60
2022/01/24 05:56:20;;;;;;;16.38;9.48;;;5.30;99.90;;;;;;5077864;28;20033;-60
2022/01/24 05:58:46;;;;;;;16.45;9.85;;;5.30;99.90;;;;;;5078476;28;20060;-60
2022/01/24 06:01:12;;;;;;;16.67;10.55;;;5.30;99.90;;;;;;5077856;28;20039;-59
2022/01/24 06:03:37;;;;;;;17.00;10.15;;;5.30;99.90;;;;;;5060370;28;20048;-60
2022/01/24 06:06:03;;;;;;;15.63;9.57;;;5.30;99.90;;;;;;5078782;28;20057;-60
2022/01/24 06:08:29;;;;;;;17.17;10.70;;;5.20;99.90;;;;;;5076956;28;20078;-59
2022/01/24 06:10:58;;;;;;;16.73;10.80;;;5.30;99.90;;;;;;5077486;28;20116;-59
2022/01/24 06:13:24;;;;;;;19.42;11.25;;;5.20;99.90;;;;;;5103536;28;20040;-58
2022/01/24 06:15:50;;;;;;;19.08;11.25;;;5.20;99.90;;;;;;5101315;28;20040;-59
2022/01/24 06:18:16;;;;;;;17.98;11.07;;;5.20;99.90;;;;;;5101996;28;20087;-59
2022/01/24 06:20:43;;;;;;;17.67;10.52;;;5.30;99.90;;;;;;5067493;28;20052;-59
2022/01/24 06:23:19;;;;;;;17.30;11.18;;;5.20;99.90;;;;;;5102844;28;20059;-59
2022/01/24 06:25:44;;;;;;;19.00;10.82;;;5.30;99.90;;;;;;5101404;28;20714;-60
2022/01/24 06:28:11;;;;;;;17.83;10.95;;;5.30;99.90;;;;;;5091722;28;20102;-60
2022/01/24 06:30:37;;;;;;;16.45;10.35;;;5.20;99.90;;;;;;5083028;28;20044;-60
2022/01/24 06:33:03;;;;;;;19.40;11.40;;;5.30;99.90;;;;;;5082032;28;20076;-59
2022/01/24 06:35:29;;;;;;;19.30;11.80;;;5.30;99.90;;;;;;5082736;28;20102;-59
2022/01/24 06:37:54;;;;;;;18.85;12.07;;;5.30;99.90;;;;;;5081795;28;20044;-59
2022/01/24 06:40:20;;;;;;;20.13;11.73;;;5.20;99.90;;;;;;5081971;28;20056;-59
2022/01/24 06:42:46;;;;;;;20.42;10.93;;;5.30;99.90;;;;;;5047046;28;20048;-60
2022/01/24 06:45:12;;;;;;;17.73;11.52;;;5.20;99.90;;;;;;5082061;28;20084;-60
2022/01/24 06:47:40;;;;;;;16.70;10.90;;;5.20;99.90;;;;;;5079592;28;20108;-59
2022/01/24 06:50:06;;;;;;;20.83;11.65;;;5.20;99.90;;;;;;5078335;28;20049;-59
2022/01/24 06:52:32;;;;;;;17.15;10.98;;;5.20;99.90;;;;;;5079158;28;20131;-59
2022/01/24 06:54:57;;;;;;;17.67;12.00;;;5.30;99.90;;;;;;5060338;28;20588;-59
2022/01/24 06:57:24;;;;;;;19.98;11.32;;;5.30;99.90;;;;;;5060458;28;20044;-59
2022/01/24 06:59:50;;;;;;;18.08;11.38;;;5.30;99.90;;;;;;5043367;28;20052;-59
2022/01/24 07:02:16;;;;;;;18.70;12.38;;;5.30;99.90;;;;;;5078226;28;20052;-60
2022/01/24 07:04:43;;;;;;;19.55;11.25;;;5.30;99.90;;;;;;5044356;28;20041;-59
2022/01/24 07:07:11;;;;;;;18.33;12.10;;;5.20;99.90;;;;;;5059993;28;20897;-59
2022/01/24 07:09:38;;;;;;;20.73;11.35;;;5.20;99.90;;;;;;5044259;28;20067;-59
2022/01/24 07:12:05;;;;;;;17.65;11.75;;;5.20;99.90;;;;;;5059745;28;20048;-59
2022/01/24 07:14:30;;;;;;;19.33;11.73;;;5.30;99.90;;;;;;5060601;28;20544;-59
2022/01/24 07:19:30;;;;;;;18.50;11.65;;;5.20;99.90;;;;;;5077684;28;20052;-59
2022/01/24 07:21:58;;;;;;;18.02;11.73;;;5.20;99.90;;;;;;5078609;28;20450;-60
2022/01/24 07:24:24;;;;;;;18.15;11.80;;;5.20;99.90;;;;;;5076806;28;20080;-60
2022/01/24 07:26:50;;;;;;;19.92;11.63;;;5.20;99.90;;;;;;5060462;28;20049;-60
2022/01/24 07:29:16;;;;;;;18.05;11.02;;;5.20;99.90;;;;;;5059626;28;20062;-60
2022/01/24 07:31:43;;;;;;;21.75;11.90;;;5.10;99.90;;;;;;5059962;28;20044;-60
2022/01/24 07:34:08;;;;;;;18.20;11.15;;;5.20;99.90;;;;;;5077987;28;20074;-60
2022/01/24 07:36:34;;;;;;;17.85;11.45;;;5.20;99.90;;;;;;5059441;28;20100;-60
2022/01/24 07:39:00;;;;;;;18.75;11.38;;;5.20;99.90;;;;;;5077939;28;20129;-60
2022/01/24 07:41:30;;;;;;;17.73;11.48;;;5.20;99.90;;;;;;5077613;28;20063;-60
2022/01/24 07:43:57;;;;;;;19.00;11.73;;;5.20;99.90;;;;;;5060515;28;20438;-60
2022/01/24 07:46:23;;;;;;;16.10;10.38;;;5.20;99.90;;;;;;5077049;28;20051;-60
2022/01/24 07:48:49;;;;;;;17.98;11.90;;;5.20;99.90;;;;;;5077605;28;20049;-60
2022/01/24 07:51:15;;;;;;;15.98;10.60;;;5.20;99.90;;;;;;5058508;28;20106;-61
2022/01/24 07:53:42;;;;;;;16.63;10.52;;;5.20;99.90;;;;;;5076717;28;20055;-61
2022/01/24 07:56:08;;;;;;;18.23;10.85;;;5.20;99.90;;;;;;5059943;28;20036;-61
2022/01/24 07:58:34;;;;;;;16.55;9.82;;;5.10;99.90;;;;;;5076917;28;20084;-60
2022/01/24 08:01:00;;;;;;;18.98;11.40;;;5.10;99.90;;;;;;5078229;28;20185;-61
2022/01/24 08:03:26;;;;;;;18.90;10.82;;;5.20;99.90;;;;;;5077250;28;20032;-60
2022/01/24 08:05:52;;;;;;;15.63;10.15;;;5.20;99.90;;;;;;5059616;28;20044;-61
2022/01/24 08:08:18;;;;;;;16.42;10.60;;;5.20;99.90;;;;;;5077028;28;20044;-61
2022/01/24 08:10:44;;;;;;;17.92;10.85;;;5.20;99.90;;;;;;5058914;28;20059;-61
2022/01/24 08:13:10;;;;;;;18.17;11.02;;;5.20;99.90;;;;;;5077265;28;20086;-60
2022/01/24 08:15:35;;;;;;;17.60;11.07;;;5.20;99.90;;;;;;5059118;28;20048;-61
2022/01/24 08:18:01;;;;;;;16.88;11.00;;;5.20;99.90;;;;;;5042741;28;20044;-60
2022/01/24 08:20:27;;;;;;;18.02;11.60;;;5.20;99.90;;;;;;5076609;28;20040;-60
2022/01/24 08:22:53;;;;;;;19.65;11.38;;;5.20;99.90;;;;;;5042577;28;20147;-60
2022/01/24 08:25:19;;;;;;;18.95;11.35;;;5.20;99.90;;;;;;5059004;28;20112;-60
2022/01/24 08:27:46;;;;;;;19.65;11.25;;;5.20;99.90;;;;;;5042320;28;20032;-61
2022/01/24 08:30:17;;;;;;;19.23;11.30;;;5.20;99.90;;;;;;5076965;28;20061;-60
2022/01/24 08:32:45;;;;;;;17.47;11.17;;;5.20;99.90;;;;;;5058819;28;20056;-61
2022/01/24 08:35:12;;;;;;;18.73;10.93;;;5.30;99.90;;;;;;5075952;28;20057;-60
2022/01/24 08:37:37;;;;;;;16.70;10.20;;;5.30;99.90;;;;;;5076610;28;20262;-60
2022/01/24 08:40:05;;;;;;;18.70;10.52;;;5.30;99.90;;;;;;5076619;28;20441;-60
2022/01/24 08:42:41;;;;;;;17.02;10.05;;;5.30;99.90;;;;;;5058349;28;20078;-60
2022/01/24 08:47:37;;;;;;;17.27;10.73;;;5.30;99.90;;;;;;5076689;28;20048;-60
2022/01/24 08:50:06;;;;;;;16.08;10.30;;;5.30;99.90;;;;;;5076079;28;20055;-61
2022/01/24 08:52:32;;;;;;;16.48;10.45;;;5.40;99.90;;;;;;5059001;28;20461;-61
2022/01/24 08:54:58;;;;;;;19.45;11.20;;;5.40;99.90;;;;;;5074381;28;20105;-60
2022/01/24 08:57:26;;;;;;;19.17;11.23;;;5.30;99.90;;;;;;5076267;28;20593;-61
2022/01/24 08:59:53;;;;;;;18.52;11.10;;;5.40;99.90;;;;;;5075666;28;20036;-60
2022/01/24 09:02:20;;;;;;;21.55;12.15;;;5.40;99.90;;;;;;5076018;28;20085;-60
2022/01/24 09:04:46;;;;;;;19.48;12.20;;;5.40;99.90;;;;;;5076628;28;20045;-61
2022/01/24 09:07:16;;;;;;;20.70;11.60;;;5.40;99.90;;;;;;5074366;28;20047;-60
2022/01/24 09:09:41;;;;;;;18.70;11.38;;;5.40;99.90;;;;;;5076540;28;20053;-61
2022/01/24 09:12:11;;;;;;;19.35;11.52;;;5.40;99.90;;;;;;5057568;28;20037;-60
2022/01/24 09:14:39;;;;;;;18.83;11.02;;;5.40;99.90;;;;;;5076210;28;20045;-61
2022/01/24 09:17:05;;;;;;;20.02;11.82;;;5.40;99.90;;;;;;5075946;28;20069;-61
2022/01/24 09:19:31;;;;;;;18.00;11.38;;;5.40;99.90;;;;;;5075526;28;20059;-61
2022/01/24 09:21:57;;;;;;;19.60;12.63;;;5.50;99.90;;;;;;5058372;28;20518;-61
2022/01/24 09:24:22;;;;;;;18.08;11.05;;;5.40;99.90;;;;;;5075320;28;20040;-61
2022/01/24 09:26:48;;;;;;;19.58;12.00;;;5.50;99.90;;;;;;5041257;28;20053;-61
2022/01/24 09:29:14;;;;;;;21.88;12.20;;;5.50;99.90;;;;;;5075369;28;20097;-61
2022/01/24 09:31:40;;;;;;;19.35;12.38;;;5.50;99.90;;;;;;5075918;28;20946;-61
2022/01/24 09:34:05;;;;;;;24.27;14.50;;;5.50;99.90;;;;;;5057761;28;20094;-61
2022/01/24 09:36:31;;;;;;;19.17;11.90;;;5.60;99.90;;;;;;5075417;28;20534;-60
2022/01/24 09:38:57;;;;;;;22.88;13.02;;;5.40;99.90;;;;;;5076146;28;20096;-61
2022/01/24 09:41:22;;;;;;;22.77;13.30;;;5.50;99.90;;;;;;5066818;28;20580;-61
2022/01/24 09:43:48;;;;;;;21.88;13.65;;;5.50;99.90;;;;;;5076199;28;20075;-61
2022/01/24 09:46:14;;;;;;;21.27;13.82;;;5.50;99.90;;;;;;5073583;28;20578;-60
2022/01/24 09:48:41;;;;;;;24.13;14.43;;;5.60;99.90;;;;;;5061183;28;20036;-60
2022/01/24 09:51:08;;;;;;;22.33;13.20;;;5.60;99.90;;;;;;5054002;28;20558;-61
2022/01/24 09:53:35;;;;;;;26.38;14.73;;;5.60;99.90;;;;;;5053767;28;20048;-61
2022/01/24 09:56:04;;;;;;;24.83;14.85;;;5.50;99.90;;;;;;5055682;28;20067;-61
2022/01/24 09:58:31;;;;;;;24.05;15.43;;;5.60;99.90;;;;;;5054645;28;20045;-61
2022/01/24 10:00:58;;;;;;;26.33;14.52;;;5.60;99.90;;;;;;5056097;28;20033;-61
2022/01/24 10:03:25;;;;;;;25.13;14.85;;;5.60;99.90;;;;;;5053703;28;20049;-60
2022/01/24 10:05:54;;;;;;;24.02;14.88;;;5.60;99.90;;;;;;5055383;28;20045;-61
2022/01/24 10:08:22;;;;;;;27.45;16.10;;;5.60;99.90;;;;;;5055035;28;20037;-60
2022/01/24 10:10:53;;;;;;;23.95;15.00;;;5.70;99.90;;;;;;5054645;28;20045;-60
2022/01/24 10:19:19;;;;;;;26.52;15.05;;;5.60;99.90;;;;;;5093828;28;20059;-61
2022/01/24 10:21:46;;;;;;;25.52;16.10;;;5.70;99.90;;;;;;5090540;28;20060;-61
2022/01/24 10:24:26;;;;;;;25.05;15.60;;;5.70;99.90;;;;;;5095078;28;20032;-61
2022/01/24 10:27:05;;;;;;;25.70;16.17;;;5.70;99.90;;;;;;5096106;28;20040;-61
2022/01/24 10:29:30;;;;;;;26.65;15.98;;;5.70;99.90;;;;;;5057918;28;20060;-61
2022/01/24 10:31:56;;;;;;;25.58;16.20;;;5.70;99.90;;;;;;5057901;28;20041;-61
2022/01/24 10:34:28;;;;;;;24.50;15.43;;;5.70;99.90;;;;;;5056321;28;20055;-60
2022/01/24 10:36:56;;;;;;;27.27;16.77;;;5.60;99.90;;;;;;5057998;28;20068;-61
2022/01/24 10:39:54;;;;;;;25.65;15.73;;;5.60;99.90;;;;;;5058745;28;20141;-61
2022/01/24 10:45:12;;;;;;;26.88;16.13;;;5.80;99.90;;;;;;5024179;28;20049;-61
2022/01/24 10:47:44;;;;;;;24.90;15.88;;;5.80;99.90;;;;;;5058472;28;20091;-61
2022/01/24 10:50:10;;;;;;;;;;;5.80;99.90;;;;;;5040088;28;20044;-61
2022/01/24 10:52:38;;;;;;;25.05;15.45;;;5.80;99.90;;;;;;5024232;28;19951;-61
2022/01/24 10:55:17;;;;;;;24.20;14.73;;;5.80;99.90;;;;;;5057833;28;20076;-61
2022/01/24 10:57:46;;;;;;;27.73;16.40;;;5.80;99.90;;;;;;5057749;28;20044;-61
2022/01/24 11:00:22;;;;;;;25.83;15.80;;;5.80;99.90;;;;;;5061996;28;20105;-61
2022/01/24 11:02:50;;;;;;;26.98;16.40;;;5.80;99.90;;;;;;5061523;28;20045;-61
2022/01/24 11:05:22;;;;;;;26.13;16.75;;;5.80;99.90;;;;;;5043471;28;20045;-61
2022/01/24 11:08:02;;;;;;;26.25;16.85;;;5.90;99.90;;;;;;5043184;28;20044;-61
2022/01/24 11:10:34;;;;;;;25.17;16.63;;;5.80;99.90;;;;;;5043523;28;20053;-61
2022/01/24 11:13:03;;;;;;;24.65;16.23;;;5.80;99.90;;;;;;5076476;28;20078;-61
2022/01/24 11:15:29;;;;;;;27.05;16.13;;;5.80;99.90;;;;;;5062569;28;20102;-61
2022/01/24 11:17:55;;;;;;;26.20;16.40;;;5.90;99.90;;;;;;5081802;28;20059;-61
2022/01/24 11:20:28;;;;;;;27.45;17.58;;;5.90;99.90;;;;;;5046116;28;20044;-61
2022/01/24 11:22:59;;;;;;;26.75;16.33;;;5.90;99.90;;;;;;5081410;28;20052;-61
2022/01/24 11:25:27;;;;;;;25.70;16.55;;;5.90;99.90;;;;;;5063685;28;20712;-60
2022/01/24 11:27:52;;;;;;;26.70;17.10;;;5.90;99.90;;;;;;5080858;28;20047;-61
2022/01/24 11:30:35;;;;;;;28.05;17.15;;;5.90;99.90;;;;;;5081495;28;20036;-61
2022/01/24 11:33:27;;;;;;;28.63;17.15;;;5.90;99.90;;;;;;5063483;28;20045;-61
2022/01/24 11:36:00;;;;;;;28.63;16.37;;;5.70;99.90;;;;;;5062930;28;20064;-61
2022/01/24 11:38:32;;;;;;;25.88;16.40;;;5.80;99.90;;;;;;5081129;28;20052;-61
2022/01/24 11:41:32;;;;;;;26.58;17.27;;;5.80;99.90;;;;;;5049707;28;20288;-60
2022/01/24 11:44:07;;;;;;;27.00;16.48;;;5.80;99.90;;;;;;5080487;28;20052;-60
2022/01/24 11:46:43;;;;;;;27.73;18.35;;;5.80;99.90;;;;;;5078227;28;20047;-61
2022/01/24 11:49:12;;;;;;;26.95;16.30;;;5.80;99.90;;;;;;5076734;28;20127;-60
2022/01/24 11:51:39;;;;;;;29.58;17.30;;;5.80;99.90;;;;;;5080464;28;20056;-60
2022/01/24 11:54:43;;;;;;;27.73;17.35;;;5.80;99.90;;;;;;5078201;28;20047;-60
2022/01/24 11:57:24;;;;;;;26.75;16.55;;;5.90;99.90;;;;;;5076618;28;20064;-60
2022/01/24 12:00:09;;;;;;;26.10;15.80;;;5.90;99.90;;;;;;5079275;28;20041;-60
2022/01/24 12:02:44;;;;;;;26.80;16.30;;;5.80;99.90;;;;;;5080303;28;20245;-59
2022/01/24 12:05:17;;;;;;;28.27;17.65;;;5.90;99.90;;;;;;5081142;28;20048;-60
2022/01/24 12:07:55;;;;;;;26.38;17.10;;;5.90;99.90;;;;;;5078689;28;20049;-60
2022/01/24 12:10:21;;;;;;;26.50;16.75;;;5.80;99.90;;;;;;5078783;28;20510;-59
2022/01/24 12:12:59;;;;;;;31.38;19.23;;;5.90;99.90;;;;;;5092882;28;20109;-59
2022/01/24 12:15:40;;;;;;;28.42;18.02;;;5.90;99.90;;;;;;5099135;28;20661;-59
2022/01/24 12:18:33;;;;;;;27.25;18.30;;;5.90;99.90;;;;;;5100964;28;20067;-59
2022/01/24 12:21:03;;;;;;;27.10;17.55;;;5.90;99.90;;;;;;5061781;28;20063;-60
2022/01/24 12:23:31;;;;;;;27.35;16.88;;;5.90;99.90;;;;;;5099064;28;20071;-60
2022/01/24 12:26:20;;;;;;;26.85;17.48;;;6.00;99.90;;;;;;5100744;28;20040;-60
2022/01/24 12:28:49;;;;;;;29.23;18.27;;;5.90;99.90;;;;;;5083990;28;20069;-59
2022/01/24 12:31:25;;;;;;;28.05;17.80;;;6.00;99.90;;;;;;5080575;28;20044;-60
2022/01/24 12:33:56;;;;;;;28.75;18.23;;;5.90;99.90;;;;;;5078481;28;20036;-59
2022/01/24 12:36:37;;;;;;;29.80;18.13;;;5.90;99.90;;;;;;5079875;28;20032;-60
2022/01/24 12:39:12;;;;;;;29.30;18.48;;;5.90;99.90;;;;;;5080077;28;20045;-60
2022/01/24 12:41:47;;;;;;;30.55;18.35;;;6.00;99.90;;;;;;5061688;28;20262;-60
2022/01/24 12:46:59;;;;;;;32.08;20.35;;;5.90;99.90;;;;;;5079676;28;20108;-60
2022/01/24 12:49:28;;;;;;;31.00;19.65;;;5.90;99.90;;;;;;5079170;28;20059;-60
2022/01/24 12:51:54;;;;;;;32.00;18.73;;;5.90;99.90;;;;;;5079894;28;20569;-59
2022/01/24 12:54:27;;;;;;;27.92;18.13;;;5.90;99.90;;;;;;5079360;28;20116;-60
2022/01/24 12:57:02;;;;;;;29.92;18.85;;;5.90;99.90;;;;;;5078420;28;20055;-59
2022/01/24 12:59:28;;;;;;;31.45;18.73;;;5.90;99.90;;;;;;5079476;28;20040;-60
2022/01/24 13:01:57;;;;;;;29.92;19.20;;;5.80;99.90;;;;;;5079194;28;20044;-60
2022/01/24 13:04:37;;;;;;;29.83;19.95;;;6.00;99.90;;;;;;5079641;28;20071;-60
2022/01/24 13:07:07;;;;;;;28.92;17.33;;;5.90;99.90;;;;;;5078998;28;20080;-60
2022/01/24 13:09:36;;;;;;;28.83;18.48;;;5.90;99.90;;;;;;5079883;28;20098;-59
2022/01/24 13:12:09;;;;;;;28.95;18.83;;;5.80;99.90;;;;;;5075866;28;20048;-59
2022/01/24 13:14:51;;;;;;;29.65;17.73;;;5.90;99.90;;;;;;5074262;28;20083;-59
2022/01/24 13:20:42;;;;;;;32.08;18.33;;;5.80;99.90;;;;;;5075161;28;20056;-59
2022/01/24 13:23:11;;;;;;;29.10;18.10;;;5.80;99.90;;;;;;5075720;28;20052;-60
2022/01/24 13:25:39;;;;;;;31.00;18.75;;;5.90;99.90;;;;;;5075744;28;20048;-61
2022/01/24 13:28:18;;;;;;;33.40;19.98;;;5.80;99.90;;;;;;5075608;28;20138;-61
2022/01/24 13:30:51;;;;;;;31.63;18.92;;;5.90;99.90;;;;;;5076309;28;20099;-61
2022/01/24 13:33:23;;;;;;;30.40;18.10;;;5.90;99.90;;;;;;5075442;28;20041;-61
2022/01/24 13:35:54;;;;;;;33.08;19.50;;;5.80;99.90;;;;;;5090949;28;20740;-61
2022/01/24 13:38:25;;;;;;;33.10;19.85;;;5.90;99.90;;;;;;5075472;28;20078;-61
2022/01/24 13:43:34;;;;;;;35.85;19.45;;;5.90;99.90;;;;;;5076056;28;20053;-61
2022/01/24 13:46:02;;;;;;;33.08;18.80;;;5.90;99.90;;;;;;5075087;28;20060;-61
2022/01/24 13:48:27;;;;;;;32.85;19.63;;;5.80;99.90;;;;;;5075301;28;20052;-61
2022/01/24 13:50:58;;;;;;;34.45;19.75;;;5.80;99.90;;;;;;5073921;28;20040;-61
2022/01/24 13:53:41;;;;;;;34.33;19.92;;;5.80;99.90;;;;;;5076997;28;20056;-61
2022/01/24 13:56:18;;;;;;;35.35;19.48;;;5.80;99.90;;;;;;5078877;28;20074;-61
2022/01/24 13:59:02;;;;;;;34.65;19.50;;;5.70;99.90;;;;;;5078214;28;20043;-61
2022/01/24 14:01:29;;;;;;;30.45;18.50;;;5.70;99.90;;;;;;5078536;28;20073;-61
2022/01/24 14:04:04;;;;;;;32.22;19.15;;;5.70;99.90;;;;;;5060334;28;20060;-61
2022/01/24 14:06:35;;;;;;;36.92;21.75;;;5.70;99.90;;;;;;5078050;28;20194;-61
2022/01/24 14:09:12;;;;;;;36.75;20.35;;;5.70;99.90;;;;;;5079044;28;20037;-61
2022/01/24 14:11:44;;;;;;;36.70;22.10;;;5.70;99.90;;;;;;5077607;28;20171;-61
2022/01/24 14:14:15;;;;;;;35.20;20.50;;;5.70;99.90;;;;;;5078292;28;20406;-61
2022/01/24 14:17:10;;;;;;;34.97;20.40;;;5.70;99.90;;;;;;5077777;28;20036;-61
2022/01/24 14:19:32;;;;;;;34.00;20.40;;;5.60;99.90;;;;;;5076084;28;20114;-61
2022/01/24 14:22:01;;;;;;;33.95;20.55;;;5.50;99.90;;;;;;5078927;28;20036;-61
2022/01/24 14:24:45;;;;;;;37.00;20.95;;;5.60;99.90;;;;;;5043461;28;20577;-61
2022/01/24 14:27:12;;;;;;;36.92;21.20;;;5.70;99.90;;;;;;5060099;28;20139;-60
2022/01/24 14:29:39;;;;;;;36.72;21.30;;;5.70;99.90;;;;;;5078238;28;20052;-61
2022/01/24 14:32:14;;;;;;;35.17;20.25;;;5.60;99.90;;;;;;5078149;28;20045;-61
2022/01/24 14:34:40;;;;;;;33.67;19.50;;;5.50;99.90;;;;;;5063866;28;20048;-61
2022/01/24 14:37:07;;;;;;;36.25;20.67;;;5.40;99.90;;;;;;5081885;28;20037;-61
2022/01/24 14:39:44;;;;;;;37.53;21.33;;;5.50;99.90;;;;;;5064709;28;20048;-61
2022/01/24 14:42:13;;;;;;;35.08;20.67;;;5.50;99.90;;;;;;5081914;28;20526;-61